Portada
METAR-TAF:

METAR-TAF

Aeropuertos :

Aeropuerto de Montpellier-Méditerranée

Montpellier, Francia

latitud: 43-35N, longitud: 003-58E, altitud: 5 m

Observación

El informe se hizo hace 19 minutos, a las 17:00 UTC
Viento 2 kt con dirección variable
Temperatura 29°C
Humedad 31%
Presión 1018 hPa
Visibilidad 10 km o más
sin nubes por debajo de 1500 m y sin presencia de cumulonimbus.

METAR: LFMT 261700Z AUTO VRB02KT CAVOK 29/10 Q1018 NOSIG

Hora: 19:19 (17:19 UTC)

Pronóstico

El informe se hizo hace 3 horas y 19 minutos, a las 14:00 UTC
Pronóstico válido del 26 a las 15 UTC al 27 a las 15 UTC
Viento 10 kt del norte
Visibilidad 10 km o más
sin nubes por debajo de 1500 m y sin presencia de cumulonimbus.

TAF: LFMT 261400Z 2615/2715 01010KT CAVOK

Observaciones y pronósticos meteorológicos de más de 4000 aeropuertos (mensajes METAR y TAF).

Los puntos amarillos y rojos representan las estaciones disponibles.

Ponga el ratón en el punto deseado para ver el nombre de la estación.

Haga clic para ver las observaciones y los pronósticos meteorológicos.

Para cambiar el mapa : haga clic en los botones verdes con una cruz de color negro para hacer un zoom, en el botón verde con un guión para alejar o en las flechas verdes para mapas adyacentes.


METAR-TAF: